sensor_id;sensor_type;location;lat;lon;timestamp;temperature;humidity
44463;DHT22;30170;52.190;8.702;2022-10-16T00:01:11;21.20;64.70
44463;DHT22;30170;52.190;8.702;2022-10-16T00:03:39;21.10;64.70
44463;DHT22;30170;52.190;8.702;2022-10-16T00:06:07;21.10;64.70
44463;DHT22;30170;52.190;8.702;2022-10-16T00:08:34;21.20;64.70
44463;DHT22;30170;52.190;8.702;2022-10-16T00:11:03;21.10;64.60
44463;DHT22;30170;52.190;8.702;2022-10-16T00:13:32;21.20;64.70
44463;DHT22;30170;52.190;8.702;2022-10-16T00:16:00;21.20;64.70
44463;DHT22;30170;52.190;8.702;2022-10-16T00:18:28;21.20;64.70
44463;DHT22;30170;52.190;8.702;2022-10-16T00:21:00;21.10;64.90
44463;DHT22;30170;52.190;8.702;2022-10-16T00:23:27;21.10;64.60
44463;DHT22;30170;52.190;8.702;2022-10-16T00:25:59;21.20;64.70
44463;DHT22;30170;52.190;8.702;2022-10-16T00:28:27;21.10;64.60
44463;DHT22;30170;52.190;8.702;2022-10-16T00:30:53;21.20;64.70
44463;DHT22;30170;52.190;8.702;2022-10-16T00:33:20;21.20;64.70
44463;DHT22;30170;52.190;8.702;2022-10-16T00:35:47;21.10;64.60
44463;DHT22;30170;52.190;8.702;2022-10-16T00:38:14;21.10;64.70
44463;DHT22;30170;52.190;8.702;2022-10-16T00:40:41;21.10;64.70
44463;DHT22;30170;52.190;8.702;2022-10-16T00:46:03;21.10;64.50
44463;DHT22;30170;52.190;8.702;2022-10-16T00:48:30;21.20;64.60
44463;DHT22;30170;52.190;8.702;2022-10-16T00:50:58;21.10;64.60
44463;DHT22;30170;52.190;8.702;2022-10-16T00:53:25;21.10;64.60
44463;DHT22;30170;52.190;8.702;2022-10-16T00:55:53;21.10;64.60
44463;DHT22;30170;52.190;8.702;2022-10-16T00:58:20;21.10;64.60
44463;DHT22;30170;52.190;8.702;2022-10-16T01:00:47;21.10;64.60
44463;DHT22;30170;52.190;8.702;2022-10-16T01:03:29;21.10;64.60
44463;DHT22;30170;52.190;8.702;2022-10-16T01:06:23;21.10;64.60
44463;DHT22;30170;52.190;8.702;2022-10-16T01:16:58;21.10;64.50
44463;DHT22;30170;52.190;8.702;2022-10-16T01:25:45;21.10;64.60
44463;DHT22;30170;52.190;8.702;2022-10-16T01:28:17;21.10;64.50
44463;DHT22;30170;52.190;8.702;2022-10-16T01:30:46;21.10;64.60
44463;DHT22;30170;52.190;8.702;2022-10-16T01:33:17;21.10;64.60
44463;DHT22;30170;52.190;8.702;2022-10-16T01:35:53;21.10;64.50
44463;DHT22;30170;52.190;8.702;2022-10-16T01:38:30;21.10;64.60
44463;DHT22;30170;52.190;8.702;2022-10-16T01:41:07;21.10;64.60
44463;DHT22;30170;52.190;8.702;2022-10-16T01:44:02;21.10;64.50
44463;DHT22;30170;52.190;8.702;2022-10-16T01:46:32;21.10;64.50
44463;DHT22;30170;52.190;8.702;2022-10-16T01:49:00;21.10;64.60
44463;DHT22;30170;52.190;8.702;2022-10-16T01:51:29;21.10;64.60
44463;DHT22;30170;52.190;8.702;2022-10-16T01:53:59;21.10;64.70
44463;DHT22;30170;52.190;8.702;2022-10-16T01:56:27;21.10;64.60
44463;DHT22;30170;52.190;8.702;2022-10-16T01:59:05;21.10;64.70
44463;DHT22;30170;52.190;8.702;2022-10-16T02:01:35;21.10;64.70
44463;DHT22;30170;52.190;8.702;2022-10-16T02:04:09;21.10;64.70
44463;DHT22;30170;52.190;8.702;2022-10-16T02:06:38;21.10;64.70
44463;DHT22;30170;52.190;8.702;2022-10-16T02:09:05;21.10;64.70
44463;DHT22;30170;52.190;8.702;2022-10-16T02:11:31;21.10;64.70
44463;DHT22;30170;52.190;8.702;2022-10-16T02:14:02;21.10;64.70
44463;DHT22;30170;52.190;8.702;2022-10-16T02:16:42;21.10;64.70
44463;DHT22;30170;52.190;8.702;2022-10-16T02:19:11;21.10;64.70
44463;DHT22;30170;52.190;8.702;2022-10-16T02:21:53;21.10;64.70
44463;DHT22;30170;52.190;8.702;2022-10-16T02:27:06;21.10;64.70
44463;DHT22;30170;52.190;8.702;2022-10-16T02:29:40;21.10;64.50
44463;DHT22;30170;52.190;8.702;2022-10-16T02:32:08;21.10;64.60
44463;DHT22;30170;52.190;8.702;2022-10-16T02:34:37;21.00;64.60
44463;DHT22;30170;52.190;8.702;2022-10-16T02:37:05;21.10;64.70
44463;DHT22;30170;52.190;8.702;2022-10-16T02:39:33;21.10;64.60
44463;DHT22;30170;52.190;8.702;2022-10-16T02:42:01;21.10;64.60
44463;DHT22;30170;52.190;8.702;2022-10-16T02:44:28;21.10;64.70
44463;DHT22;30170;52.190;8.702;2022-10-16T02:46:54;21.10;64.70
44463;DHT22;30170;52.190;8.702;2022-10-16T02:49:21;21.00;64.60
44463;DHT22;30170;52.190;8.702;2022-10-16T02:51:48;21.10;64.70
44463;DHT22;30170;52.190;8.702;2022-10-16T02:54:15;21.10;64.70
44463;DHT22;30170;52.190;8.702;2022-10-16T02:56:41;21.10;64.70
44463;DHT22;30170;52.190;8.702;2022-10-16T02:59:08;21.10;64.70
44463;DHT22;30170;52.190;8.702;2022-10-16T03:01:35;21.10;64.60
44463;DHT22;30170;52.190;8.702;2022-10-16T03:04:02;21.10;64.60
44463;DHT22;30170;52.190;8.702;2022-10-16T03:06:29;21.00;64.60
44463;DHT22;30170;52.190;8.702;2022-10-16T03:08:56;21.00;64.60
44463;DHT22;30170;52.190;8.702;2022-10-16T03:11:23;21.00;64.60
44463;DHT22;30170;52.190;8.702;2022-10-16T03:13:49;21.00;64.60
44463;DHT22;30170;52.190;8.702;2022-10-16T03:16:16;21.00;64.60
44463;DHT22;30170;52.190;8.702;2022-10-16T03:18:43;21.00;64.60
44463;DHT22;30170;52.190;8.702;2022-10-16T03:21:10;21.10;64.80
44463;DHT22;30170;52.190;8.702;2022-10-16T03:23:36;21.00;64.70
44463;DHT22;30170;52.190;8.702;2022-10-16T03:26:03;21.00;64.60
44463;DHT22;30170;52.190;8.702;2022-10-16T03:28:30;21.00;64.60
44463;DHT22;30170;52.190;8.702;2022-10-16T03:30:56;21.00;64.60
44463;DHT22;30170;52.190;8.702;2022-10-16T03:33:23;21.00;64.60
44463;DHT22;30170;52.190;8.702;2022-10-16T03:35:53;21.00;65.10
44463;DHT22;30170;52.190;8.702;2022-10-16T03:38:21;21.20;64.70
44463;DHT22;30170;52.190;8.702;2022-10-16T03:40:48;21.00;64.60
44463;DHT22;30170;52.190;8.702;2022-10-16T03:43:15;21.00;64.60
44463;DHT22;30170;52.190;8.702;2022-10-16T03:45:41;21.00;64.70
44463;DHT22;30170;52.190;8.702;2022-10-16T03:48:11;21.00;64.70
44463;DHT22;30170;52.190;8.702;2022-10-16T03:50:37;21.00;64.70
44463;DHT22;30170;52.190;8.702;2022-10-16T03:53:04;21.00;64.70
44463;DHT22;30170;52.190;8.702;2022-10-16T03:55:31;21.00;64.70
44463;DHT22;30170;52.190;8.702;2022-10-16T03:57:57;21.00;64.70
44463;DHT22;30170;52.190;8.702;2022-10-16T04:00:24;21.00;64.70
44463;DHT22;30170;52.190;8.702;2022-10-16T04:02:51;21.00;64.70
44463;DHT22;30170;52.190;8.702;2022-10-16T04:05:18;21.00;64.70
44463;DHT22;30170;52.190;8.702;2022-10-16T04:07:44;21.00;64.70
44463;DHT22;30170;52.190;8.702;2022-10-16T04:10:11;21.00;64.70
44463;DHT22;30170;52.190;8.702;2022-10-16T04:12:38;21.00;64.70
44463;DHT22;30170;52.190;8.702;2022-10-16T04:15:05;21.00;64.70
44463;DHT22;30170;52.190;8.702;2022-10-16T04:17:32;21.00;64.70
44463;DHT22;30170;52.190;8.702;2022-10-16T04:19:58;21.00;64.70
44463;DHT22;30170;52.190;8.702;2022-10-16T04:22:25;21.00;64.70
44463;DHT22;30170;52.190;8.702;2022-10-16T04:24:53;21.00;64.60
44463;DHT22;30170;52.190;8.702;2022-10-16T04:27:19;21.00;64.70
44463;DHT22;30170;52.190;8.702;2022-10-16T04:29:46;21.00;64.70
44463;DHT22;30170;52.190;8.702;2022-10-16T04:32:13;21.00;64.70
44463;DHT22;30170;52.190;8.702;2022-10-16T04:34:40;21.00;64.70
44463;DHT22;30170;52.190;8.702;2022-10-16T04:37:07;21.00;64.70
44463;DHT22;30170;52.190;8.702;2022-10-16T04:39:33;21.00;64.70
44463;DHT22;30170;52.190;8.702;2022-10-16T04:42:00;21.00;64.70
44463;DHT22;30170;52.190;8.702;2022-10-16T04:44:27;21.00;64.70
44463;DHT22;30170;52.190;8.702;2022-10-16T04:46:54;20.90;64.70
44463;DHT22;30170;52.190;8.702;2022-10-16T04:49:20;21.00;64.70
44463;DHT22;30170;52.190;8.702;2022-10-16T04:51:47;21.00;64.70
44463;DHT22;30170;52.190;8.702;2022-10-16T04:54:14;21.00;64.70
44463;DHT22;30170;52.190;8.702;2022-10-16T04:56:41;21.10;64.80
44463;DHT22;30170;52.190;8.702;2022-10-16T04:59:14;21.00;64.80
44463;DHT22;30170;52.190;8.702;2022-10-16T05:01:41;21.00;64.80
44463;DHT22;30170;52.190;8.702;2022-10-16T05:04:08;21.00;64.80
44463;DHT22;30170;52.190;8.702;2022-10-16T05:06:35;21.00;64.70
44463;DHT22;30170;52.190;8.702;2022-10-16T05:09:02;21.00;64.70
44463;DHT22;30170;52.190;8.702;2022-10-16T05:11:29;21.00;64.80
44463;DHT22;30170;52.190;8.702;2022-10-16T05:13:55;21.00;64.80
44463;DHT22;30170;52.190;8.702;2022-10-16T05:16:22;20.90;64.80
44463;DHT22;30170;52.190;8.702;2022-10-16T05:18:50;20.90;64.70
44463;DHT22;30170;52.190;8.702;2022-10-16T05:21:21;21.00;64.80
44463;DHT22;30170;52.190;8.702;2022-10-16T05:23:48;21.00;64.80
44463;DHT22;30170;52.190;8.702;2022-10-16T05:26:15;21.00;64.70
44463;DHT22;30170;52.190;8.702;2022-10-16T05:28:42;21.00;64.70
44463;DHT22;30170;52.190;8.702;2022-10-16T05:31:09;21.00;64.80
44463;DHT22;30170;52.190;8.702;2022-10-16T05:33:36;21.00;64.70
44463;DHT22;30170;52.190;8.702;2022-10-16T05:36:05;20.90;64.70
44463;DHT22;30170;52.190;8.702;2022-10-16T05:38:37;21.00;64.70
44463;DHT22;30170;52.190;8.702;2022-10-16T05:41:04;21.00;64.60
44463;DHT22;30170;52.190;8.702;2022-10-16T05:43:32;21.00;64.80
44463;DHT22;30170;52.190;8.702;2022-10-16T05:46:05;20.90;64.80
44463;DHT22;30170;52.190;8.702;2022-10-16T05:48:33;21.00;64.80
44463;DHT22;30170;52.190;8.702;2022-10-16T05:51:03;20.90;64.80
44463;DHT22;30170;52.190;8.702;2022-10-16T05:53:32;21.00;64.80
44463;DHT22;30170;52.190;8.702;2022-10-16T05:55:59;20.90;64.70
44463;DHT22;30170;52.190;8.702;2022-10-16T05:58:29;21.00;64.80
44463;DHT22;30170;52.190;8.702;2022-10-16T06:00:58;20.90;64.80
44463;DHT22;30170;52.190;8.702;2022-10-16T06:03:26;20.90;64.80
44463;DHT22;30170;52.190;8.702;2022-10-16T06:05:53;20.90;64.80
44463;DHT22;30170;52.190;8.702;2022-10-16T06:08:22;20.90;64.80
44463;DHT22;30170;52.190;8.702;2022-10-16T06:11:00;20.90;64.80
44463;DHT22;30170;52.190;8.702;2022-10-16T06:13:27;20.90;64.80
44463;DHT22;30170;52.190;8.702;2022-10-16T06:15:57;20.90;64.90
44463;DHT22;30170;52.190;8.702;2022-10-16T06:18:25;20.90;64.80
44463;DHT22;30170;52.190;8.702;2022-10-16T06:20:52;20.90;64.80
44463;DHT22;30170;52.190;8.702;2022-10-16T06:23:19;20.90;64.80
44463;DHT22;30170;52.190;8.702;2022-10-16T06:25:46;20.90;64.80
44463;DHT22;30170;52.190;8.702;2022-10-16T06:28:14;20.90;64.90
44463;DHT22;30170;52.190;8.702;2022-10-16T06:30:41;20.90;64.90
44463;DHT22;30170;52.190;8.702;2022-10-16T06:33:10;20.90;65.00
44463;DHT22;30170;52.190;8.702;2022-10-16T06:35:37;21.00;65.80
44463;DHT22;30170;52.190;8.702;2022-10-16T06:38:04;20.90;65.20
44463;DHT22;30170;52.190;8.702;2022-10-16T06:40:31;20.90;65.20
44463;DHT22;30170;52.190;8.702;2022-10-16T06:42:57;20.90;65.10
44463;DHT22;30170;52.190;8.702;2022-10-16T06:45:24;20.90;65.10
44463;DHT22;30170;52.190;8.702;2022-10-16T06:47:51;20.90;65.10
44463;DHT22;30170;52.190;8.702;2022-10-16T06:50:17;20.90;65.20
44463;DHT22;30170;52.190;8.702;2022-10-16T06:52:44;20.90;65.10
44463;DHT22;30170;52.190;8.702;2022-10-16T06:55:11;20.90;65.00
44463;DHT22;30170;52.190;8.702;2022-10-16T06:57:38;20.90;65.00
44463;DHT22;30170;52.190;8.702;2022-10-16T07:00:06;20.90;65.00
44463;DHT22;30170;52.190;8.702;2022-10-16T07:02:33;20.90;64.70
44463;DHT22;30170;52.190;8.702;2022-10-16T07:05:00;20.90;64.80
44463;DHT22;30170;52.190;8.702;2022-10-16T07:07:27;20.90;64.80
44463;DHT22;30170;52.190;8.702;2022-10-16T07:09:53;21.00;64.80
44463;DHT22;30170;52.190;8.702;2022-10-16T07:12:20;20.90;64.80
44463;DHT22;30170;52.190;8.702;2022-10-16T07:14:47;20.90;64.80
44463;DHT22;30170;52.190;8.702;2022-10-16T07:17:14;20.90;64.80
44463;DHT22;30170;52.190;8.702;2022-10-16T07:19:40;20.90;64.90
44463;DHT22;30170;52.190;8.702;2022-10-16T07:22:07;20.90;64.90
44463;DHT22;30170;52.190;8.702;2022-10-16T07:24:34;20.90;64.90
44463;DHT22;30170;52.190;8.702;2022-10-16T07:27:00;20.90;64.90
44463;DHT22;30170;52.190;8.702;2022-10-16T07:29:27;20.90;64.90
44463;DHT22;30170;52.190;8.702;2022-10-16T07:31:54;21.00;65.00
44463;DHT22;30170;52.190;8.702;2022-10-16T07:34:21;20.90;64.90
44463;DHT22;30170;52.190;8.702;2022-10-16T07:36:49;20.90;64.90
44463;DHT22;30170;52.190;8.702;2022-10-16T07:39:16;21.00;64.90
44463;DHT22;30170;52.190;8.702;2022-10-16T07:41:43;20.90;64.90
44463;DHT22;30170;52.190;8.702;2022-10-16T07:44:10;20.90;64.90
44463;DHT22;30170;52.190;8.702;2022-10-16T07:46:37;20.90;64.90
44463;DHT22;30170;52.190;8.702;2022-10-16T07:49:04;20.90;64.90
44463;DHT22;30170;52.190;8.702;2022-10-16T07:51:30;21.00;65.00
44463;DHT22;30170;52.190;8.702;2022-10-16T07:53:57;20.90;64.90
44463;DHT22;30170;52.190;8.702;2022-10-16T07:56:24;20.90;64.90
44463;DHT22;30170;52.190;8.702;2022-10-16T07:58:51;20.90;64.90
44463;DHT22;30170;52.190;8.702;2022-10-16T08:01:19;20.90;64.90
44463;DHT22;30170;52.190;8.702;2022-10-16T08:03:50;21.00;64.90
44463;DHT22;30170;52.190;8.702;2022-10-16T08:06:19;21.00;65.00
44463;DHT22;30170;52.190;8.702;2022-10-16T08:08:54;20.90;64.90
44463;DHT22;30170;52.190;8.702;2022-10-16T08:11:21;20.90;64.90
44463;DHT22;30170;52.190;8.702;2022-10-16T08:13:48;20.90;64.90
44463;DHT22;30170;52.190;8.702;2022-10-16T08:16:15;21.00;65.00
44463;DHT22;30170;52.190;8.702;2022-10-16T08:18:41;21.00;65.00
44463;DHT22;30170;52.190;8.702;2022-10-16T08:21:13;20.90;64.90
44463;DHT22;30170;52.190;8.702;2022-10-16T08:23:47;21.00;65.00
44463;DHT22;30170;52.190;8.702;2022-10-16T08:26:22;21.00;65.00
44463;DHT22;30170;52.190;8.702;2022-10-16T08:28:50;21.00;65.00
44463;DHT22;30170;52.190;8.702;2022-10-16T08:31:17;21.00;65.00
44463;DHT22;30170;52.190;8.702;2022-10-16T08:33:45;21.00;65.10
44463;DHT22;30170;52.190;8.702;2022-10-16T08:36:13;21.00;65.00
44463;DHT22;30170;52.190;8.702;2022-10-16T08:38:40;21.00;65.00
44463;DHT22;30170;52.190;8.702;2022-10-16T08:44:43;20.90;64.90
44463;DHT22;30170;52.190;8.702;2022-10-16T08:47:19;21.00;65.10
44463;DHT22;30170;52.190;8.702;2022-10-16T08:50:08;21.00;65.10
44463;DHT22;30170;52.190;8.702;2022-10-16T08:52:39;21.00;65.10
44463;DHT22;30170;52.190;8.702;2022-10-16T08:55:08;21.00;65.00
44463;DHT22;30170;52.190;8.702;2022-10-16T08:57:43;21.00;65.00
44463;DHT22;30170;52.190;8.702;2022-10-16T09:00:13;21.00;65.10
44463;DHT22;30170;52.190;8.702;2022-10-16T09:16:30;21.00;64.90
44463;DHT22;30170;52.190;8.702;2022-10-16T09:19:13;21.00;65.10
44463;DHT22;30170;52.190;8.702;2022-10-16T09:21:44;21.00;65.10
44463;DHT22;30170;52.190;8.702;2022-10-16T09:24:15;21.00;65.10
44463;DHT22;30170;52.190;8.702;2022-10-16T09:26:42;21.00;65.00
44463;DHT22;30170;52.190;8.702;2022-10-16T09:29:13;21.00;65.10
44463;DHT22;30170;52.190;8.702;2022-10-16T09:31:40;21.00;65.00
44463;DHT22;30170;52.190;8.702;2022-10-16T09:34:32;21.00;65.10
44463;DHT22;30170;52.190;8.702;2022-10-16T09:37:04;21.00;65.50
44463;DHT22;30170;52.190;8.702;2022-10-16T09:39:52;21.00;65.10
44463;DHT22;30170;52.190;8.702;2022-10-16T09:42:27;21.00;65.00
44463;DHT22;30170;52.190;8.702;2022-10-16T09:44:56;21.00;65.10
44463;DHT22;30170;52.190;8.702;2022-10-16T09:47:28;21.00;65.10
44463;DHT22;30170;52.190;8.702;2022-10-16T09:50:05;21.00;65.00
44463;DHT22;30170;52.190;8.702;2022-10-16T09:52:45;21.00;65.00
44463;DHT22;30170;52.190;8.702;2022-10-16T09:55:17;21.00;65.10
44463;DHT22;30170;52.190;8.702;2022-10-16T09:57:54;21.00;65.00
44463;DHT22;30170;52.190;8.702;2022-10-16T10:00:23;21.00;65.10
44463;DHT22;30170;52.190;8.702;2022-10-16T10:02:50;21.00;65.10
44463;DHT22;30170;52.190;8.702;2022-10-16T10:05:25;21.00;65.10
44463;DHT22;30170;52.190;8.702;2022-10-16T10:08:01;21.00;65.00
44463;DHT22;30170;52.190;8.702;2022-10-16T10:10:41;21.00;65.00
44463;DHT22;30170;52.190;8.702;2022-10-16T10:13:22;21.00;65.10
44463;DHT22;30170;52.190;8.702;2022-10-16T10:15:51;21.00;65.10
44463;DHT22;30170;52.190;8.702;2022-10-16T10:18:20;21.00;65.10
44463;DHT22;30170;52.190;8.702;2022-10-16T10:20:59;21.00;65.10
44463;DHT22;30170;52.190;8.702;2022-10-16T10:23:28;21.00;65.10
44463;DHT22;30170;52.190;8.702;2022-10-16T10:26:05;21.10;65.20
44463;DHT22;30170;52.190;8.702;2022-10-16T10:28:42;21.00;65.10
44463;DHT22;30170;52.190;8.702;2022-10-16T10:36:40;21.00;65.10
44463;DHT22;30170;52.190;8.702;2022-10-16T11:01:04;21.10;65.10
44463;DHT22;30170;52.190;8.702;2022-10-16T11:06:39;21.10;65.10
44463;DHT22;30170;52.190;8.702;2022-10-16T11:09:27;21.10;65.10
44463;DHT22;30170;52.190;8.702;2022-10-16T11:12:03;21.10;65.10
44463;DHT22;30170;52.190;8.702;2022-10-16T11:14:38;21.10;65.10
44463;DHT22;30170;52.190;8.702;2022-10-16T11:17:49;21.10;65.10
44463;DHT22;30170;52.190;8.702;2022-10-16T11:20:24;21.10;65.50
44463;DHT22;30170;52.190;8.702;2022-10-16T11:22:56;21.10;65.00
44463;DHT22;30170;52.190;8.702;2022-10-16T11:25:27;21.10;65.10
44463;DHT22;30170;52.190;8.702;2022-10-16T11:28:14;21.10;65.00
44463;DHT22;30170;52.190;8.702;2022-10-16T11:30:50;21.10;65.00
44463;DHT22;30170;52.190;8.702;2022-10-16T11:36:06;21.10;65.30
44463;DHT22;30170;52.190;8.702;2022-10-16T11:41:28;21.10;65.20
44463;DHT22;30170;52.190;8.702;2022-10-16T11:46:32;21.20;65.30
44463;DHT22;30170;52.190;8.702;2022-10-16T11:49:24;21.20;65.40
44463;DHT22;30170;52.190;8.702;2022-10-16T11:52:05;21.10;65.30
44463;DHT22;30170;52.190;8.702;2022-10-16T11:54:36;21.20;65.70
44463;DHT22;30170;52.190;8.702;2022-10-16T11:57:13;21.20;65.30
44463;DHT22;30170;52.190;8.702;2022-10-16T12:00:02;21.20;65.30
44463;DHT22;30170;52.190;8.702;2022-10-16T12:08:16;21.20;65.20
44463;DHT22;30170;52.190;8.702;2022-10-16T12:10:45;21.20;65.30
44463;DHT22;30170;52.190;8.702;2022-10-16T12:13:32;21.20;65.40
44463;DHT22;30170;52.190;8.702;2022-10-16T12:18:32;21.20;65.50
44463;DHT22;30170;52.190;8.702;2022-10-16T12:20:59;21.20;65.50
44463;DHT22;30170;52.190;8.702;2022-10-16T12:23:46;21.30;65.50
44463;DHT22;30170;52.190;8.702;2022-10-16T12:26:13;21.30;65.60
44463;DHT22;30170;52.190;8.702;2022-10-16T12:28:40;21.30;66.10
44463;DHT22;30170;52.190;8.702;2022-10-16T12:31:09;21.30;65.60
44463;DHT22;30170;52.190;8.702;2022-10-16T12:33:58;21.30;65.60
44463;DHT22;30170;52.190;8.702;2022-10-16T12:36:32;21.30;65.70
44463;DHT22;30170;52.190;8.702;2022-10-16T12:39:00;21.30;65.70
44463;DHT22;30170;52.190;8.702;2022-10-16T12:41:29;21.30;65.60
44463;DHT22;30170;52.190;8.702;2022-10-16T12:43:57;21.30;65.70
44463;DHT22;30170;52.190;8.702;2022-10-16T12:51:42;21.40;65.70
44463;DHT22;30170;52.190;8.702;2022-10-16T12:54:31;21.40;65.70
44463;DHT22;30170;52.190;8.702;2022-10-16T12:57:19;21.40;65.50
44463;DHT22;30170;52.190;8.702;2022-10-16T13:00:26;21.40;65.60
44463;DHT22;30170;52.190;8.702;2022-10-16T13:11:44;21.40;65.60
44463;DHT22;30170;52.190;8.702;2022-10-16T13:17:25;21.40;65.50
44463;DHT22;30170;52.190;8.702;2022-10-16T13:27:59;21.50;65.60
44463;DHT22;30170;52.190;8.702;2022-10-16T13:30:29;21.50;65.60
44463;DHT22;30170;52.190;8.702;2022-10-16T13:33:16;21.50;65.60
44463;DHT22;30170;52.190;8.702;2022-10-16T13:35:52;21.50;65.60
44463;DHT22;30170;52.190;8.702;2022-10-16T13:38:28;21.50;65.90
44463;DHT22;30170;52.190;8.702;2022-10-16T13:40:56;21.60;65.70
44463;DHT22;30170;52.190;8.702;2022-10-16T13:43:39;21.60;65.90
44463;DHT22;30170;52.190;8.702;2022-10-16T13:46:12;21.60;65.60
44463;DHT22;30170;52.190;8.702;2022-10-16T13:48:40;21.60;65.70
44463;DHT22;30170;52.190;8.702;2022-10-16T13:51:15;21.60;65.70
44463;DHT22;30170;52.190;8.702;2022-10-16T13:53:43;21.70;65.70
44463;DHT22;30170;52.190;8.702;2022-10-16T13:56:17;21.60;65.70
44463;DHT22;30170;52.190;8.702;2022-10-16T13:58:45;21.70;65.70
44463;DHT22;30170;52.190;8.702;2022-10-16T14:01:20;21.70;65.70
44463;DHT22;30170;52.190;8.702;2022-10-16T14:04:02;21.70;65.70
44463;DHT22;30170;52.190;8.702;2022-10-16T14:06:30;21.70;65.70
44463;DHT22;30170;52.190;8.702;2022-10-16T14:09:07;21.70;65.70
44463;DHT22;30170;52.190;8.702;2022-10-16T14:11:38;21.80;65.50
44463;DHT22;30170;52.190;8.702;2022-10-16T14:14:12;21.80;65.60
44463;DHT22;30170;52.190;8.702;2022-10-16T14:16:41;21.80;65.60
44463;DHT22;30170;52.190;8.702;2022-10-16T14:19:20;21.80;65.60
44463;DHT22;30170;52.190;8.702;2022-10-16T14:21:52;21.90;65.70
44463;DHT22;30170;52.190;8.702;2022-10-16T14:24:27;21.80;65.40
44463;DHT22;30170;52.190;8.702;2022-10-16T14:26:57;21.80;65.50
44463;DHT22;30170;52.190;8.702;2022-10-16T14:29:26;21.90;65.60
44463;DHT22;30170;52.190;8.702;2022-10-16T14:32:02;21.90;65.50
44463;DHT22;30170;52.190;8.702;2022-10-16T14:34:37;21.90;65.50
44463;DHT22;30170;52.190;8.702;2022-10-16T14:37:14;21.90;65.50
44463;DHT22;30170;52.190;8.702;2022-10-16T14:39:49;22.00;65.50
44463;DHT22;30170;52.190;8.702;2022-10-16T14:42:18;22.00;65.40
44463;DHT22;30170;52.190;8.702;2022-10-16T14:44:46;22.00;65.40
44463;DHT22;30170;52.190;8.702;2022-10-16T14:47:17;22.00;65.40
44463;DHT22;30170;52.190;8.702;2022-10-16T14:49:48;22.00;65.80
44463;DHT22;30170;52.190;8.702;2022-10-16T14:52:15;22.00;65.30
44463;DHT22;30170;52.190;8.702;2022-10-16T14:54:43;22.00;65.30
44463;DHT22;30170;52.190;8.702;2022-10-16T14:57:22;22.10;65.30
44463;DHT22;30170;52.190;8.702;2022-10-16T14:59:50;22.10;65.30
44463;DHT22;30170;52.190;8.702;2022-10-16T15:02:35;22.10;65.20
44463;DHT22;30170;52.190;8.702;2022-10-16T15:07:45;22.20;65.30
44463;DHT22;30170;52.190;8.702;2022-10-16T15:10:13;22.10;65.10
44463;DHT22;30170;52.190;8.702;2022-10-16T15:12:40;22.10;65.10
44463;DHT22;30170;52.190;8.702;2022-10-16T15:15:36;22.10;65.10
44463;DHT22;30170;52.190;8.702;2022-10-16T15:18:04;22.10;64.90
44463;DHT22;30170;52.190;8.702;2022-10-16T15:20:34;22.10;65.00
44463;DHT22;30170;52.190;8.702;2022-10-16T15:23:08;22.10;65.00
44463;DHT22;30170;52.190;8.702;2022-10-16T15:25:42;22.10;65.00
44463;DHT22;30170;52.190;8.702;2022-10-16T15:28:10;22.10;65.00
44463;DHT22;30170;52.190;8.702;2022-10-16T15:30:38;22.10;65.10
44463;DHT22;30170;52.190;8.702;2022-10-16T15:33:10;22.10;65.10
44463;DHT22;30170;52.190;8.702;2022-10-16T15:35:38;22.10;65.10
44463;DHT22;30170;52.190;8.702;2022-10-16T15:38:05;22.10;65.00
44463;DHT22;30170;52.190;8.702;2022-10-16T15:40:31;22.10;65.00
44463;DHT22;30170;52.190;8.702;2022-10-16T15:42:58;22.10;65.00
44463;DHT22;30170;52.190;8.702;2022-10-16T15:45:25;22.10;65.00
44463;DHT22;30170;52.190;8.702;2022-10-16T15:47:52;22.10;65.00
44463;DHT22;30170;52.190;8.702;2022-10-16T15:50:19;22.10;65.10
44463;DHT22;30170;52.190;8.702;2022-10-16T15:52:45;22.10;65.10
44463;DHT22;30170;52.190;8.702;2022-10-16T15:55:13;22.10;65.10
44463;DHT22;30170;52.190;8.702;2022-10-16T15:57:41;22.10;65.10
44463;DHT22;30170;52.190;8.702;2022-10-16T16:00:12;22.00;65.40
44463;DHT22;30170;52.190;8.702;2022-10-16T16:02:40;22.10;64.90
44463;DHT22;30170;52.190;8.702;2022-10-16T16:05:08;22.10;65.10
44463;DHT22;30170;52.190;8.702;2022-10-16T16:07:36;22.10;65.00
44463;DHT22;30170;52.190;8.702;2022-10-16T16:10:05;22.10;65.10
44463;DHT22;30170;52.190;8.702;2022-10-16T16:12:33;22.10;65.00
44463;DHT22;30170;52.190;8.702;2022-10-16T16:15:00;22.00;64.90
44463;DHT22;30170;52.190;8.702;2022-10-16T16:17:32;22.10;65.00
44463;DHT22;30170;52.190;8.702;2022-10-16T16:20:00;22.00;64.90
44463;DHT22;30170;52.190;8.702;2022-10-16T16:22:27;22.00;64.80
44463;DHT22;30170;52.190;8.702;2022-10-16T16:24:55;22.20;64.90
44463;DHT22;30170;52.190;8.702;2022-10-16T16:27:21;22.00;64.90
44463;DHT22;30170;52.190;8.702;2022-10-16T16:29:52;22.00;64.90
44463;DHT22;30170;52.190;8.702;2022-10-16T16:32:20;22.00;64.90
44463;DHT22;30170;52.190;8.702;2022-10-16T16:34:46;22.00;64.80
44463;DHT22;30170;52.190;8.702;2022-10-16T16:37:13;22.00;64.80
44463;DHT22;30170;52.190;8.702;2022-10-16T16:39:40;22.00;64.80
44463;DHT22;30170;52.190;8.702;2022-10-16T16:42:07;22.00;64.80
44463;DHT22;30170;52.190;8.702;2022-10-16T16:44:34;22.00;64.80
44463;DHT22;30170;52.190;8.702;2022-10-16T16:47:03;22.00;64.70
44463;DHT22;30170;52.190;8.702;2022-10-16T16:49:31;22.00;64.70
44463;DHT22;30170;52.190;8.702;2022-10-16T16:51:57;22.00;64.70
44463;DHT22;30170;52.190;8.702;2022-10-16T16:54:24;21.90;64.60
44463;DHT22;30170;52.190;8.702;2022-10-16T16:56:51;22.00;64.70
44463;DHT22;30170;52.190;8.702;2022-10-16T16:59:20;22.00;64.70
44463;DHT22;30170;52.190;8.702;2022-10-16T17:01:48;22.00;64.70
44463;DHT22;30170;52.190;8.702;2022-10-16T17:04:22;22.00;64.80
44463;DHT22;30170;52.190;8.702;2022-10-16T17:06:48;22.00;64.70
44463;DHT22;30170;52.190;8.702;2022-10-16T17:09:15;22.00;64.70
44463;DHT22;30170;52.190;8.702;2022-10-16T17:11:42;22.00;64.70
44463;DHT22;30170;52.190;8.702;2022-10-16T17:14:11;22.00;65.20
44463;DHT22;30170;52.190;8.702;2022-10-16T17:16:39;22.00;64.70
44463;DHT22;30170;52.190;8.702;2022-10-16T17:19:07;22.00;64.60
44463;DHT22;30170;52.190;8.702;2022-10-16T17:21:35;22.00;64.70
44463;DHT22;30170;52.190;8.702;2022-10-16T17:24:02;21.90;64.60
44463;DHT22;30170;52.190;8.702;2022-10-16T17:26:30;21.90;64.70
44463;DHT22;30170;52.190;8.702;2022-10-16T17:28:59;21.90;64.70
44463;DHT22;30170;52.190;8.702;2022-10-16T17:31:31;22.00;64.70
44463;DHT22;30170;52.190;8.702;2022-10-16T17:33:59;22.00;64.50
44463;DHT22;30170;52.190;8.702;2022-10-16T17:36:27;21.90;64.70
44463;DHT22;30170;52.190;8.702;2022-10-16T17:39:01;21.90;64.50
44463;DHT22;30170;52.190;8.702;2022-10-16T17:41:33;21.90;64.60